sensor_id;sensor_type;location;lat;lon;timestamp;pressure;altitude;pressure_sealevel;temperature;humidity
57232;BME280;43488;46.934;8.276;2023-02-15T01:17:28;97808.94;;;0.99;100.00
57232;BME280;43488;46.934;8.276;2023-02-15T01:21:14;97804.94;;;0.95;100.00
57232;BME280;43488;46.934;8.276;2023-02-15T01:23:43;97806.44;;;0.97;100.00
57232;BME280;43488;46.934;8.276;2023-02-15T01:26:11;97812.94;;;0.92;100.00
57232;BME280;43488;46.934;8.276;2023-02-15T01:28:39;97798.91;;;0.94;100.00
57232;BME280;43488;46.934;8.276;2023-02-15T01:31:09;97813.91;;;1.02;100.00
57232;BME280;43488;46.934;8.276;2023-02-15T01:33:38;97803.53;;;1.02;100.00
57232;BME280;43488;46.934;8.276;2023-02-15T01:36:06;97812.34;;;0.99;100.00
57232;BME280;43488;46.934;8.276;2023-02-15T01:38:43;97811.31;;;1.02;100.00
57232;BME280;43488;46.934;8.276;2023-02-15T01:41:11;97811.41;;;1.00;100.00
57232;BME280;43488;46.934;8.276;2023-02-15T01:46:32;97817.97;;;0.82;100.00
57232;BME280;43488;46.934;8.276;2023-02-15T01:49:17;97820.78;;;0.79;100.00
57232;BME280;43488;46.934;8.276;2023-02-15T01:51:49;97817.25;;;0.69;100.00
57232;BME280;43488;46.934;8.276;2023-02-15T01:54:22;97820.78;;;0.68;100.00
57232;BME280;43488;46.934;8.276;2023-02-15T01:56:53;97818.06;;;0.69;100.00
57232;BME280;43488;46.934;8.276;2023-02-15T01:59:23;97815.09;;;0.63;100.00
57232;BME280;43488;46.934;8.276;2023-02-15T02:01:55;97811.66;;;0.62;100.00
57232;BME280;43488;46.934;8.276;2023-02-15T02:04:41;97813.13;;;0.66;100.00
57232;BME280;43488;46.934;8.276;2023-02-15T02:07:15;97814.88;;;0.66;100.00
57232;BME280;43488;46.934;8.276;2023-02-15T02:09:45;97800.28;;;0.65;100.00
57232;BME280;43488;46.934;8.276;2023-02-15T02:12:13;97804.97;;;0.60;100.00
57232;BME280;43488;46.934;8.276;2023-02-15T02:14:41;97802.97;;;0.63;100.00
57232;BME280;43488;46.934;8.276;2023-02-15T02:17:33;97800.47;;;0.62;99.33
57232;BME280;43488;46.934;8.276;2023-02-15T02:29:11;97806.59;;;0.25;96.76
57232;BME280;43488;46.934;8.276;2023-02-15T02:41:25;97811.84;;;0.13;95.36
57232;BME280;43488;46.934;8.276;2023-02-15T02:44:25;97806.94;;;-0.03;95.81
57232;BME280;43488;46.934;8.276;2023-02-15T02:47:08;97809.47;;;-0.14;95.52
57232;BME280;43488;46.934;8.276;2023-02-15T02:49:39;97810.56;;;-0.06;95.25
57232;BME280;43488;46.934;8.276;2023-02-15T02:55:11;97808.28;;;-0.10;94.44
57232;BME280;43488;46.934;8.276;2023-02-15T03:00:30;97793.91;;;-0.38;93.35
57232;BME280;43488;46.934;8.276;2023-02-15T03:03:14;97794.13;;;-0.41;93.42
57232;BME280;43488;46.934;8.276;2023-02-15T03:05:44;97786.47;;;-0.43;92.34
57232;BME280;43488;46.934;8.276;2023-02-15T03:08:14;97793.19;;;-0.40;92.32
57232;BME280;43488;46.934;8.276;2023-02-15T03:10:49;97798.25;;;-0.39;92.12
57232;BME280;43488;46.934;8.276;2023-02-15T03:13:20;97795.69;;;-0.51;92.39
57232;BME280;43488;46.934;8.276;2023-02-15T03:15:48;97790.63;;;-0.53;94.08
57232;BME280;43488;46.934;8.276;2023-02-15T03:18:36;97789.81;;;-0.66;95.87
57232;BME280;43488;46.934;8.276;2023-02-15T03:21:05;97792.09;;;-0.62;95.53
57232;BME280;43488;46.934;8.276;2023-02-15T03:23:34;97790.13;;;-0.58;95.61
57232;BME280;43488;46.934;8.276;2023-02-15T03:26:05;97786.09;;;-0.62;95.56
57232;BME280;43488;46.934;8.276;2023-02-15T03:28:53;97788.47;;;-0.59;96.34
57232;BME280;43488;46.934;8.276;2023-02-15T03:31:23;97776.59;;;-0.62;96.38
57232;BME280;43488;46.934;8.276;2023-02-15T03:34:01;97787.13;;;-0.65;96.95
57232;BME280;43488;46.934;8.276;2023-02-15T03:39:44;97786.94;;;-0.62;97.17
57232;BME280;43488;46.934;8.276;2023-02-15T03:45:02;97774.75;;;-0.72;98.36
57232;BME280;43488;46.934;8.276;2023-02-15T03:47:44;97785.91;;;-0.72;98.08
57232;BME280;43488;46.934;8.276;2023-02-15T03:50:21;97780.94;;;-0.75;97.66
57232;BME280;43488;46.934;8.276;2023-02-15T03:53:10;97781.38;;;-0.81;97.54
57232;BME280;43488;46.934;8.276;2023-02-15T03:55:38;97787.25;;;-0.79;97.02
57232;BME280;43488;46.934;8.276;2023-02-15T03:58:05;97783.22;;;-0.83;97.07
57232;BME280;43488;46.934;8.276;2023-02-15T04:01:05;97785.09;;;-0.85;95.77
57232;BME280;43488;46.934;8.276;2023-02-15T04:03:59;97780.34;;;-0.91;95.04
57232;BME280;43488;46.934;8.276;2023-02-15T04:06:27;97776.00;;;-0.91;94.23
57232;BME280;43488;46.934;8.276;2023-02-15T04:08:54;97780.75;;;-0.97;93.77
57232;BME280;43488;46.934;8.276;2023-02-15T04:11:40;97772.06;;;-0.96;93.30
57232;BME280;43488;46.934;8.276;2023-02-15T04:14:07;97778.91;;;-0.95;92.58
57232;BME280;43488;46.934;8.276;2023-02-15T04:16:53;97779.59;;;-0.93;92.11
57232;BME280;43488;46.934;8.276;2023-02-15T04:19:19;97771.34;;;-0.98;91.45
57232;BME280;43488;46.934;8.276;2023-02-15T04:22:05;97768.88;;;-1.00;91.32
57232;BME280;43488;46.934;8.276;2023-02-15T04:24:50;97765.56;;;-1.02;91.33
57232;BME280;43488;46.934;8.276;2023-02-15T04:27:36;97773.75;;;-1.08;91.52
57232;BME280;43488;46.934;8.276;2023-02-15T04:30:05;97775.91;;;-1.15;91.52
57232;BME280;43488;46.934;8.276;2023-02-15T04:32:34;97774.75;;;-1.10;91.71
57232;BME280;43488;46.934;8.276;2023-02-15T04:35:02;97771.34;;;-1.11;91.79
57232;BME280;43488;46.934;8.276;2023-02-15T04:37:29;97765.06;;;-1.07;91.20
57232;BME280;43488;46.934;8.276;2023-02-15T04:39:57;97766.00;;;-1.08;90.81
57232;BME280;43488;46.934;8.276;2023-02-15T04:42:26;97763.50;;;-1.09;90.47
57232;BME280;43488;46.934;8.276;2023-02-15T04:44:54;97772.47;;;-1.02;90.64
57232;BME280;43488;46.934;8.276;2023-02-15T04:47:21;97766.50;;;-1.03;89.79
57232;BME280;43488;46.934;8.276;2023-02-15T04:49:49;97767.94;;;-0.99;89.83
57232;BME280;43488;46.934;8.276;2023-02-15T04:52:16;97765.25;;;-0.97;89.14
57232;BME280;43488;46.934;8.276;2023-02-15T04:54:46;97774.66;;;-0.96;88.22
57232;BME280;43488;46.934;8.276;2023-02-15T04:57:13;97772.19;;;-0.98;88.40
57232;BME280;43488;46.934;8.276;2023-02-15T04:59:40;97767.31;;;-1.02;88.44
57232;BME280;43488;46.934;8.276;2023-02-15T05:02:07;97770.00;;;-1.04;88.30
57232;BME280;43488;46.934;8.276;2023-02-15T05:04:34;97767.94;;;-1.11;88.49
57232;BME280;43488;46.934;8.276;2023-02-15T05:07:00;97766.72;;;-1.19;89.06
57232;BME280;43488;46.934;8.276;2023-02-15T05:09:27;97766.19;;;-1.11;90.01
57232;BME280;43488;46.934;8.276;2023-02-15T05:11:54;97769.81;;;-1.13;88.21
57232;BME280;43488;46.934;8.276;2023-02-15T05:14:21;97759.34;;;-1.12;87.75
57232;BME280;43488;46.934;8.276;2023-02-15T05:16:48;97762.97;;;-1.15;88.04
57232;BME280;43488;46.934;8.276;2023-02-15T05:19:15;97769.19;;;-1.17;88.49
57232;BME280;43488;46.934;8.276;2023-02-15T05:21:43;97765.97;;;-1.21;88.01
57232;BME280;43488;46.934;8.276;2023-02-15T05:24:10;97763.19;;;-1.18;88.18
57232;BME280;43488;46.934;8.276;2023-02-15T05:26:55;97765.78;;;-1.18;88.57
57232;BME280;43488;46.934;8.276;2023-02-15T05:29:41;97759.25;;;-1.23;88.77
57232;BME280;43488;46.934;8.276;2023-02-15T05:32:08;97761.31;;;-1.28;89.72
57232;BME280;43488;46.934;8.276;2023-02-15T05:34:35;97768.34;;;-1.30;89.12
57232;BME280;43488;46.934;8.276;2023-02-15T05:37:02;97762.34;;;-1.31;88.68
57232;BME280;43488;46.934;8.276;2023-02-15T05:39:29;97760.72;;;-1.32;88.27
57232;BME280;43488;46.934;8.276;2023-02-15T05:42:00;97770.31;;;-1.34;87.92
57232;BME280;43488;46.934;8.276;2023-02-15T05:44:27;97766.09;;;-1.35;87.64
57232;BME280;43488;46.934;8.276;2023-02-15T05:46:54;97768.47;;;-1.45;87.76
57232;BME280;43488;46.934;8.276;2023-02-15T05:49:21;97763.06;;;-1.41;88.09
57232;BME280;43488;46.934;8.276;2023-02-15T05:51:48;97770.00;;;-1.42;88.21
57232;BME280;43488;46.934;8.276;2023-02-15T05:54:15;97766.50;;;-1.41;87.91
57232;BME280;43488;46.934;8.276;2023-02-15T05:56:42;97769.91;;;-1.53;88.36
57232;BME280;43488;46.934;8.276;2023-02-15T05:59:09;97774.94;;;-1.52;88.93
57232;BME280;43488;46.934;8.276;2023-02-15T06:01:36;97776.50;;;-1.49;89.64
57232;BME280;43488;46.934;8.276;2023-02-15T06:04:03;97780.34;;;-1.42;89.68
57232;BME280;43488;46.934;8.276;2023-02-15T06:06:30;97770.50;;;-1.50;88.36
57232;BME280;43488;46.934;8.276;2023-02-15T06:08:57;97780.72;;;-1.48;88.80
57232;BME280;43488;46.934;8.276;2023-02-15T06:11:24;97786.53;;;-1.45;89.43
57232;BME280;43488;46.934;8.276;2023-02-15T06:13:51;97789.00;;;-1.43;90.02
57232;BME280;43488;46.934;8.276;2023-02-15T06:16:18;97779.72;;;-1.46;89.90
57232;BME280;43488;46.934;8.276;2023-02-15T06:18:46;97781.47;;;-1.46;89.72
57232;BME280;43488;46.934;8.276;2023-02-15T06:21:13;97787.88;;;-1.39;89.63
57232;BME280;43488;46.934;8.276;2023-02-15T06:23:41;97794.19;;;-1.30;90.89
57232;BME280;43488;46.934;8.276;2023-02-15T06:26:08;97792.44;;;-1.42;88.56
57232;BME280;43488;46.934;8.276;2023-02-15T06:28:36;97798.19;;;-1.39;87.87
57232;BME280;43488;46.934;8.276;2023-02-15T06:31:03;97801.31;;;-1.34;86.72
57232;BME280;43488;46.934;8.276;2023-02-15T06:33:31;97800.50;;;-1.34;86.16
57232;BME280;43488;46.934;8.276;2023-02-15T06:36:00;97804.31;;;-1.40;86.04
57232;BME280;43488;46.934;8.276;2023-02-15T06:38:28;97809.13;;;-1.48;86.03
57232;BME280;43488;46.934;8.276;2023-02-15T06:40:55;97809.13;;;-1.48;85.92
57232;BME280;43488;46.934;8.276;2023-02-15T06:43:22;97806.44;;;-1.47;86.23
57232;BME280;43488;46.934;8.276;2023-02-15T06:45:50;97817.31;;;-1.41;85.77
57232;BME280;43488;46.934;8.276;2023-02-15T06:48:20;97819.91;;;-1.41;86.24
57232;BME280;43488;46.934;8.276;2023-02-15T06:50:46;97817.44;;;-1.43;85.95
57232;BME280;43488;46.934;8.276;2023-02-15T06:53:14;97821.44;;;-1.39;86.04
57232;BME280;43488;46.934;8.276;2023-02-15T06:55:41;97817.53;;;-1.32;86.59
57232;BME280;43488;46.934;8.276;2023-02-15T06:58:09;97820.03;;;-1.30;86.05
57232;BME280;43488;46.934;8.276;2023-02-15T07:00:36;97822.50;;;-1.29;86.54
57232;BME280;43488;46.934;8.276;2023-02-15T07:03:03;97815.06;;;-1.46;86.04
57232;BME280;43488;46.934;8.276;2023-02-15T07:05:33;97824.34;;;-1.44;87.17
57232;BME280;43488;46.934;8.276;2023-02-15T07:08:00;97821.28;;;-1.36;89.26
57232;BME280;43488;46.934;8.276;2023-02-15T07:10:27;97821.66;;;-1.29;91.46
57232;BME280;43488;46.934;8.276;2023-02-15T07:12:54;97822.22;;;-1.24;93.55
57232;BME280;43488;46.934;8.276;2023-02-15T07:15:22;97818.41;;;-1.19;95.24
57232;BME280;43488;46.934;8.276;2023-02-15T07:17:50;97825.72;;;-1.25;95.77
57232;BME280;43488;46.934;8.276;2023-02-15T07:20:20;97826.16;;;-1.19;95.76
57232;BME280;43488;46.934;8.276;2023-02-15T07:22:48;97835.56;;;-1.18;95.16
57232;BME280;43488;46.934;8.276;2023-02-15T07:25:16;97835.41;;;-1.29;96.39
57232;BME280;43488;46.934;8.276;2023-02-15T07:27:43;97829.03;;;-1.23;96.08
57232;BME280;43488;46.934;8.276;2023-02-15T07:30:14;97832.84;;;-1.29;96.08
57232;BME280;43488;46.934;8.276;2023-02-15T07:32:42;97822.72;;;-1.32;96.87
57232;BME280;43488;46.934;8.276;2023-02-15T07:35:28;97825.28;;;-1.19;98.06
57232;BME280;43488;46.934;8.276;2023-02-15T07:37:55;97825.13;;;-1.16;98.32
57232;BME280;43488;46.934;8.276;2023-02-15T07:40:22;97825.44;;;-1.08;99.08
57232;BME280;43488;46.934;8.276;2023-02-15T07:42:51;97822.75;;;-1.06;100.00
57232;BME280;43488;46.934;8.276;2023-02-15T07:45:20;97818.69;;;-1.10;100.00
57232;BME280;43488;46.934;8.276;2023-02-15T07:47:47;97823.97;;;-1.12;100.00
57232;BME280;43488;46.934;8.276;2023-02-15T07:50:14;97824.50;;;-0.94;100.00
57232;BME280;43488;46.934;8.276;2023-02-15T07:52:41;97827.72;;;-0.91;100.00
57232;BME280;43488;46.934;8.276;2023-02-15T07:55:09;97818.81;;;-0.87;100.00
57232;BME280;43488;46.934;8.276;2023-02-15T07:57:43;97820.47;;;-0.73;100.00
57232;BME280;43488;46.934;8.276;2023-02-15T08:00:12;97815.06;;;-0.70;98.93
57232;BME280;43488;46.934;8.276;2023-02-15T08:02:40;97809.19;;;-0.72;97.40
57232;BME280;43488;46.934;8.276;2023-02-15T08:05:07;97820.66;;;-0.63;96.42
57232;BME280;43488;46.934;8.276;2023-02-15T08:07:34;97808.00;;;-0.55;94.59
57232;BME280;43488;46.934;8.276;2023-02-15T08:10:01;97803.31;;;-0.37;94.11
57232;BME280;43488;46.934;8.276;2023-02-15T08:12:30;97800.94;;;-0.40;93.35
57232;BME280;43488;46.934;8.276;2023-02-15T08:14:57;97790.81;;;-0.43;93.56
57232;BME280;43488;46.934;8.276;2023-02-15T08:17:24;97799.94;;;-0.50;93.41
57232;BME280;43488;46.934;8.276;2023-02-15T08:19:51;97789.88;;;-0.42;93.79
57232;BME280;43488;46.934;8.276;2023-02-15T08:22:18;97790.38;;;-0.37;92.81
57232;BME280;43488;46.934;8.276;2023-02-15T08:24:46;97786.81;;;-0.23;92.21
57232;BME280;43488;46.934;8.276;2023-02-15T08:27:14;97786.34;;;-0.05;91.65
57232;BME280;43488;46.934;8.276;2023-02-15T08:29:41;97776.97;;;0.06;91.13
57232;BME280;43488;46.934;8.276;2023-02-15T08:32:12;97781.47;;;0.15;91.84
57232;BME280;43488;46.934;8.276;2023-02-15T08:34:41;97774.22;;;0.20;91.89
57232;BME280;43488;46.934;8.276;2023-02-15T08:37:09;97784.94;;;0.26;91.86
57232;BME280;43488;46.934;8.276;2023-02-15T08:39:37;97782.03;;;0.31;91.59
57232;BME280;43488;46.934;8.276;2023-02-15T08:42:05;97786.03;;;0.35;91.73
57232;BME280;43488;46.934;8.276;2023-02-15T08:44:33;97773.53;;;0.29;91.05
57232;BME280;43488;46.934;8.276;2023-02-15T08:47:00;97772.25;;;0.35;91.67
57232;BME280;43488;46.934;8.276;2023-02-15T08:49:30;97772.63;;;0.41;91.02
57232;BME280;43488;46.934;8.276;2023-02-15T08:51:58;97775.91;;;0.32;91.65
57232;BME280;43488;46.934;8.276;2023-02-15T08:54:25;97771.28;;;0.24;92.51
57232;BME280;43488;46.934;8.276;2023-02-15T08:56:53;97768.84;;;0.34;92.59
57232;BME280;43488;46.934;8.276;2023-02-15T08:59:22;97767.91;;;0.35;93.77
57232;BME280;43488;46.934;8.276;2023-02-15T09:01:51;97766.09;;;0.71;94.61
57232;BME280;43488;46.934;8.276;2023-02-15T09:04:19;97761.44;;;0.98;92.70
57232;BME280;43488;46.934;8.276;2023-02-15T09:06:48;97759.44;;;1.24;92.09
57232;BME280;43488;46.934;8.276;2023-02-15T09:09:16;97752.97;;;1.30;91.39
57232;BME280;43488;46.934;8.276;2023-02-15T09:11:46;97764.72;;;1.56;90.39
57232;BME280;43488;46.934;8.276;2023-02-15T09:14:15;97758.28;;;1.83;88.78
57232;BME280;43488;46.934;8.276;2023-02-15T09:16:44;97755.28;;;1.98;87.78
57232;BME280;43488;46.934;8.276;2023-02-15T09:19:12;97745.06;;;2.18;88.60
57232;BME280;43488;46.934;8.276;2023-02-15T09:21:40;97738.22;;;2.38;87.56
57232;BME280;43488;46.934;8.276;2023-02-15T09:24:09;97739.50;;;2.64;86.03
57232;BME280;43488;46.934;8.276;2023-02-15T09:26:40;97736.72;;;2.77;85.85
57232;BME280;43488;46.934;8.276;2023-02-15T09:29:09;97741.47;;;2.93;85.22
57232;BME280;43488;46.934;8.276;2023-02-15T09:31:42;97731.06;;;2.93;84.17
57232;BME280;43488;46.934;8.276;2023-02-15T09:34:15;97733.94;;;2.99;84.51
57232;BME280;43488;46.934;8.276;2023-02-15T09:36:45;97740.41;;;3.05;83.10
57232;BME280;43488;46.934;8.276;2023-02-15T09:56:00;97723.88;;;3.65;81.40
57232;BME280;43488;46.934;8.276;2023-02-15T10:01:20;97724.75;;;3.85;80.72
57232;BME280;43488;46.934;8.276;2023-02-15T10:04:14;97721.88;;;4.08;84.78
57232;BME280;43488;46.934;8.276;2023-02-15T10:09:34;97719.00;;;4.49;84.11
57232;BME280;43488;46.934;8.276;2023-02-15T10:12:22;97723.81;;;4.35;82.10
57232;BME280;43488;46.934;8.276;2023-02-15T10:14:56;97725.16;;;4.39;82.93
57232;BME280;43488;46.934;8.276;2023-02-15T10:28:50;97709.13;;;3.95;85.22
57232;BME280;43488;46.934;8.276;2023-02-15T10:31:27;97713.25;;;3.97;87.83
57232;BME280;43488;46.934;8.276;2023-02-15T10:39:26;97709.81;;;4.36;87.80
57232;BME280;43488;46.934;8.276;2023-02-15T10:42:05;97710.91;;;4.23;86.95
57232;BME280;43488;46.934;8.276;2023-02-15T10:44:54;97698.28;;;4.28;88.01
57232;BME280;43488;46.934;8.276;2023-02-15T10:58:29;97683.38;;;5.42;82.63
57232;BME280;43488;46.934;8.276;2023-02-15T11:06:50;97672.31;;;6.11;80.21
57232;BME280;43488;46.934;8.276;2023-02-15T11:09:23;97657.97;;;6.59;75.87
57232;BME280;43488;46.934;8.276;2023-02-15T11:11:53;97653.03;;;6.56;74.48
57232;BME280;43488;46.934;8.276;2023-02-15T11:14:43;97657.44;;;7.16;73.16
57232;BME280;43488;46.934;8.276;2023-02-15T11:17:14;97646.75;;;7.67;71.93
57232;BME280;43488;46.934;8.276;2023-02-15T11:19:58;97636.66;;;8.30;68.43
57232;BME280;43488;46.934;8.276;2023-02-15T11:22:32;97645.00;;;8.66;66.55
57232;BME280;43488;46.934;8.276;2023-02-15T11:25:04;97635.84;;;8.53;65.39
57232;BME280;43488;46.934;8.276;2023-02-15T11:27:42;97632.88;;;8.57;65.18
57232;BME280;43488;46.934;8.276;2023-02-15T11:30:13;97622.66;;;7.56;68.83
57232;BME280;43488;46.934;8.276;2023-02-15T11:32:51;97612.22;;;7.72;70.65
57232;BME280;43488;46.934;8.276;2023-02-15T11:35:40;97613.22;;;7.79;73.08
57232;BME280;43488;46.934;8.276;2023-02-15T11:38:22;97609.44;;;7.90;70.42
57232;BME280;43488;46.934;8.276;2023-02-15T11:41:03;97608.94;;;7.94;71.05
57232;BME280;43488;46.934;8.276;2023-02-15T11:43:53;97600.25;;;8.10;68.98
57232;BME280;43488;46.934;8.276;2023-02-15T11:46:21;97602.84;;;8.59;68.07
57232;BME280;43488;46.934;8.276;2023-02-15T11:48:49;97598.94;;;8.31;68.88
57232;BME280;43488;46.934;8.276;2023-02-15T11:51:21;97596.84;;;8.42;68.79
57232;BME280;43488;46.934;8.276;2023-02-15T11:53:50;97600.66;;;8.87;66.98
57232;BME280;43488;46.934;8.276;2023-02-15T11:56:23;97590.91;;;9.35;64.67
57232;BME280;43488;46.934;8.276;2023-02-15T11:58:59;97581.25;;;9.50;64.11
57232;BME280;43488;46.934;8.276;2023-02-15T12:01:36;97598.03;;;9.95;63.47
57232;BME280;43488;46.934;8.276;2023-02-15T12:04:26;97586.16;;;10.22;61.74
57232;BME280;43488;46.934;8.276;2023-02-15T12:07:18;97585.84;;;10.40;60.55
57232;BME280;43488;46.934;8.276;2023-02-15T12:10:21;97585.38;;;10.36;58.76
57232;BME280;43488;46.934;8.276;2023-02-15T12:13:14;97586.84;;;10.68;57.65
57232;BME280;43488;46.934;8.276;2023-02-15T12:15:51;97575.38;;;11.05;55.89
57232;BME280;43488;46.934;8.276;2023-02-15T12:18:38;97575.41;;;11.42;54.54
57232;BME280;43488;46.934;8.276;2023-02-15T12:21:23;97567.75;;;11.83;52.79
57232;BME280;43488;46.934;8.276;2023-02-15T12:23:54;97569.34;;;12.33;50.30
57232;BME280;43488;46.934;8.276;2023-02-15T12:26:29;97573.09;;;13.89;47.12
57232;BME280;43488;46.934;8.276;2023-02-15T12:29:01;97560.47;;;15.98;42.32
57232;BME280;43488;46.934;8.276;2023-02-15T12:31:40;97551.63;;;18.76;37.03
57232;BME280;43488;46.934;8.276;2023-02-15T12:36:49;97549.38;;;23.09;29.88
57232;BME280;43488;46.934;8.276;2023-02-15T12:39:30;97544.81;;;24.53;27.21
57232;BME280;43488;46.934;8.276;2023-02-15T12:42:03;97546.91;;;25.57;26.05
57232;BME280;43488;46.934;8.276;2023-02-15T12:44:34;97549.72;;;26.25;24.94
57232;BME280;43488;46.934;8.276;2023-02-15T12:49:44;97537.38;;;27.67;21.96
57232;BME280;43488;46.934;8.276;2023-02-15T12:52:30;97537.50;;;28.46;21.01
57232;BME280;43488;46.934;8.276;2023-02-15T12:55:18;97539.88;;;28.15;20.08
57232;BME280;43488;46.934;8.276;2023-02-15T12:57:46;97532.41;;;28.86;20.35
57232;BME280;43488;46.934;8.276;2023-02-15T13:02:56;97536.50;;;30.47;18.40
57232;BME280;43488;46.934;8.276;2023-02-15T13:05:38;97527.44;;;30.82;18.71
57232;BME280;43488;46.934;8.276;2023-02-15T13:08:16;97520.94;;;31.75;17.25
57232;BME280;43488;46.934;8.276;2023-02-15T13:11:08;97521.38;;;31.42;17.16
57232;BME280;43488;46.934;8.276;2023-02-15T13:14:02;97510.97;;;31.36;16.62
57232;BME280;43488;46.934;8.276;2023-02-15T13:16:38;97515.97;;;32.20;16.99
57232;BME280;43488;46.934;8.276;2023-02-15T13:19:16;97514.56;;;31.80;16.66
57232;BME280;43488;46.934;8.276;2023-02-15T13:21:52;97510.34;;;32.17;16.49
57232;BME280;43488;46.934;8.276;2023-02-15T13:24:32;97515.63;;;32.48;15.86
57232;BME280;43488;46.934;8.276;2023-02-15T13:27:00;97513.00;;;32.60;15.98
57232;BME280;43488;46.934;8.276;2023-02-15T13:29:31;97506.22;;;32.84;15.17
57232;BME280;43488;46.934;8.276;2023-02-15T13:32:21;97507.03;;;32.84;15.71
57232;BME280;43488;46.934;8.276;2023-02-15T13:34:50;97504.50;;;33.80;14.50
57232;BME280;43488;46.934;8.276;2023-02-15T13:37:50;97520.69;;;34.06;14.56
57232;BME280;43488;46.934;8.276;2023-02-15T13:58:01;97513.28;;;33.44;14.55
57232;BME280;43488;46.934;8.276;2023-02-15T14:00:38;97509.84;;;33.76;14.37
57232;BME280;43488;46.934;8.276;2023-02-15T14:06:46;97515.13;;;32.46;14.95
57232;BME280;43488;46.934;8.276;2023-02-15T14:09:39;97513.88;;;32.09;15.04
57232;BME280;43488;46.934;8.276;2023-02-15T14:15:35;97506.53;;;32.73;14.57
57232;BME280;43488;46.934;8.276;2023-02-15T14:27:05;97518.00;;;33.26;14.90
57232;BME280;43488;46.934;8.276;2023-02-15T14:29:57;97516.00;;;32.76;15.46
57232;BME280;43488;46.934;8.276;2023-02-15T14:32:38;97511.88;;;32.61;15.53
57232;BME280;43488;46.934;8.276;2023-02-15T14:35:21;97516.41;;;33.25;15.16
57232;BME280;43488;46.934;8.276;2023-02-15T14:40:53;97509.88;;;32.23;15.48
57232;BME280;43488;46.934;8.276;2023-02-15T14:43:55;97508.00;;;33.09;15.21
57232;BME280;43488;46.934;8.276;2023-02-15T14:49:32;97506.56;;;33.62;14.36
57232;BME280;43488;46.934;8.276;2023-02-15T14:52:09;97510.56;;;34.06;14.46
57232;BME280;43488;46.934;8.276;2023-02-15T15:02:48;97503.38;;;33.60;14.75
57232;BME280;43488;46.934;8.276;2023-02-15T15:05:33;97503.69;;;33.79;14.34
57232;BME280;43488;46.934;8.276;2023-02-15T15:08:03;97503.44;;;33.22;14.92
57232;BME280;43488;46.934;8.276;2023-02-15T15:10:45;97500.19;;;33.28;14.61
57232;BME280;43488;46.934;8.276;2023-02-15T15:13:38;97501.22;;;33.45;15.06
57232;BME280;43488;46.934;8.276;2023-02-15T15:19:08;97497.19;;;32.92;15.11
57232;BME280;43488;46.934;8.276;2023-02-15T15:27:46;97482.06;;;31.92;15.66
57232;BME280;43488;46.934;8.276;2023-02-15T15:39:47;97478.31;;;30.79;17.12
57232;BME280;43488;46.934;8.276;2023-02-15T15:42:31;97473.84;;;30.74;17.14
57232;BME280;43488;46.934;8.276;2023-02-15T15:48:35;97461.56;;;28.65;18.56
57232;BME280;43488;46.934;8.276;2023-02-15T15:53:43;97463.84;;;23.63;23.84
57232;BME280;43488;46.934;8.276;2023-02-15T15:56:20;97467.38;;;22.01;25.34
57232;BME280;43488;46.934;8.276;2023-02-15T15:58:56;97467.69;;;20.53;26.67
57232;BME280;43488;46.934;8.276;2023-02-15T16:01:34;97466.09;;;19.51;27.67
57232;BME280;43488;46.934;8.276;2023-02-15T16:04:02;97473.69;;;18.62;29.56
57232;BME280;43488;46.934;8.276;2023-02-15T16:06:39;97472.72;;;17.63;31.53
57232;BME280;43488;46.934;8.276;2023-02-15T16:09:18;97468.41;;;16.72;33.22
57232;BME280;43488;46.934;8.276;2023-02-15T16:11:59;97471.78;;;16.24;33.91
57232;BME280;43488;46.934;8.276;2023-02-15T16:14:40;97473.94;;;15.66;35.03
57232;BME280;43488;46.934;8.276;2023-02-15T16:17:18;97474.72;;;14.90;36.32
57232;BME280;43488;46.934;8.276;2023-02-15T16:19:45;97477.56;;;14.23;37.49
57232;BME280;43488;46.934;8.276;2023-02-15T16:22:23;97476.41;;;13.73;38.54
57232;BME280;43488;46.934;8.276;2023-02-15T16:25:19;97476.56;;;13.38;39.08
57232;BME280;43488;46.934;8.276;2023-02-15T16:27:49;97491.53;;;13.12;39.64
57232;BME280;43488;46.934;8.276;2023-02-15T16:30:27;97488.91;;;12.64;40.55
57232;BME280;43488;46.934;8.276;2023-02-15T16:33:16;97485.19;;;12.17;41.29
57232;BME280;43488;46.934;8.276;2023-02-15T16:36:01;97486.50;;;11.57;42.69
57232;BME280;43488;46.934;8.276;2023-02-15T16:41:27;97501.78;;;11.04;43.92
57232;BME280;43488;46.934;8.276;2023-02-15T16:44:00;97500.84;;;10.75;44.58
57232;BME280;43488;46.934;8.276;2023-02-15T16:46:41;97504.34;;;10.61;44.65
57232;BME280;43488;46.934;8.276;2023-02-15T16:49:23;97507.38;;;10.20;45.78
57232;BME280;43488;46.934;8.276;2023-02-15T16:52:03;97505.72;;;10.05;45.73
57232;BME280;43488;46.934;8.276;2023-02-15T16:54:33;97521.44;;;9.75;46.32
57232;BME280;43488;46.934;8.276;2023-02-15T16:57:03;97526.25;;;9.72;46.83
57232;BME280;43488;46.934;8.276;2023-02-15T16:59:41;97525.25;;;9.50;47.44
57232;BME280;43488;46.934;8.276;2023-02-15T17:02:27;97533.94;;;9.27;47.61
57232;BME280;43488;46.934;8.276;2023-02-15T17:07:49;97531.66;;;8.93;48.69
57232;BME280;43488;46.934;8.276;2023-02-15T17:10:34;97540.41;;;8.86;48.88
57232;BME280;43488;46.934;8.276;2023-02-15T17:13:13;97549.97;;;8.78;49.61
57232;BME280;43488;46.934;8.276;2023-02-15T17:18:40;97550.25;;;8.36;50.65
57232;BME280;43488;46.934;8.276;2023-02-15T17:21:20;97541.91;;;8.24;51.11
57232;BME280;43488;46.934;8.276;2023-02-15T17:23:50;97549.94;;;8.15;51.30
57232;BME280;43488;46.934;8.276;2023-02-15T17:26:29;97555.69;;;7.94;51.24
57232;BME280;43488;46.934;8.276;2023-02-15T17:29:46;97550.28;;;7.55;52.53
57232;BME280;43488;46.934;8.276;2023-02-15T17:31:51;97559.75;;;7.31;53.67
57232;BME280;43488;46.934;8.276;2023-02-15T17:37:22;97556.16;;;7.40;53.91
57232;BME280;43488;46.934;8.276;2023-02-15T17:39:50;97555.69;;;7.45;54.01
57232;BME280;43488;46.934;8.276;2023-02-15T17:42:18;97562.88;;;7.35;54.01
57232;BME280;43488;46.934;8.276;2023-02-15T17:44:45;97558.44;;;7.35;54.32
57232;BME280;43488;46.934;8.276;2023-02-15T17:47:18;97563.19;;;7.32;54.56
57232;BME280;43488;46.934;8.276;2023-02-15T17:49:47;97563.03;;;7.33;54.65
57232;BME280;43488;46.934;8.276;2023-02-15T17:52:17;97568.41;;;7.24;54.81
57232;BME280;43488;46.934;8.276;2023-02-15T17:54:44;97569.88;;;7.18;55.63